Time;durP1;ratioP1;P1;durP2;ratioP2;P2;SDS_P1;SDS_P2;PMS_P1;PMS_P2;Temp;Humidity;BMP_temperature;BMP_pressure;BME280_temperature;BME280_humidity;BME280_pressure;Samples;Min_cycle;Max_cycle;Signal;HPM_P1;HPM_P2
2021/10/01 08:18:38;;;;;;;4.40;1.52;;;;;;;;;;6241425;22;20730;-62
2021/10/01 08:21:04;;;;;;;4.57;1.60;;;;;;;;;;6214395;23;20382;-59
2021/10/01 08:23:31;;;;;;;5.88;1.45;;;;;;;;;;6241745;23;20411;-59
2021/10/01 08:25:57;;;;;;;5.90;1.77;;;;;;;;;;6214609;23;20456;-60
2021/10/01 08:28:23;;;;;;;4.73;1.60;;;;;;;;;;6241583;23;20413;-60
2021/10/01 08:30:49;;;;;;;3.53;1.30;;;;;;;;;;6241108;23;20658;-59
2021/10/01 08:33:15;;;;;;;3.92;1.60;;;;;;;;;;6240609;23;20342;-64
2021/10/01 08:35:41;;;;;;;4.28;1.40;;;;;;;;;;6214423;23;20499;-60
2021/10/01 08:38:08;;;;;;;3.53;1.23;;;;;;;;;;6214684;23;20817;-59
2021/10/01 08:40:34;;;;;;;4.78;1.40;;;;;;;;;;6241588;23;20385;-59
2021/10/01 08:43:00;;;;;;;4.13;1.65;;;;;;;;;;6241534;23;20775;-59
2021/10/01 08:45:28;;;;;;;3.40;1.35;;;;;;;;;;6240311;23;20393;-63
2021/10/01 08:47:57;;;;;;;3.78;1.35;;;;;;;;;;6213285;23;20342;-58
2021/10/01 08:50:24;;;;;;;4.45;1.40;;;;;;;;;;6241016;23;20349;-60
2021/10/01 08:52:51;;;;;;;3.88;1.40;;;;;;;;;;6213878;23;20346;-58
2021/10/01 08:55:17;;;;;;;4.28;1.55;;;;;;;;;;6213462;23;20428;-59
2021/10/01 08:57:43;;;;;;;5.15;1.70;;;;;;;;;;6213895;23;20350;-60
2021/10/01 09:00:15;;;;;;;4.75;1.63;;;;;;;;;;6240319;23;20409;-59
2021/10/01 09:02:41;;;;;;;2.85;1.30;;;;;;;;;;6240717;23;20422;-61
2021/10/01 09:05:07;;;;;;;2.90;1.30;;;;;;;;;;6240394;23;20342;-62
2021/10/01 09:07:34;;;;;;;3.42;1.40;;;;;;;;;;6188166;23;20357;-60
2021/10/01 09:10:00;;;;;;;3.65;1.40;;;;;;;;;;6240874;23;20706;-54
2021/10/01 09:12:26;;;;;;;4.60;1.50;;;;;;;;;;6239935;23;20417;-58
2021/10/01 09:14:58;;;;;;;4.30;1.70;;;;;;;;;;6240439;23;20734;-57
2021/10/01 09:17:26;;;;;;;5.25;1.70;;;;;;;;;;6240922;23;20975;-60
2021/10/01 09:19:53;;;;;;;5.25;1.85;;;;;;;;;;6212935;23;20382;-59
2021/10/01 09:22:25;;;;;;;4.05;1.60;;;;;;;;;;6240366;23;20683;-54
2021/10/01 09:24:51;;;;;;;4.43;1.43;;;;;;;;;;6213407;23;20350;-59
2021/10/01 09:27:18;;;;;;;4.53;1.67;;;;;;;;;;6213066;23;20837;-53
2021/10/01 09:29:44;;;;;;;4.18;1.45;;;;;;;;;;6213143;23;20484;-59
2021/10/01 09:32:17;;;;;;;5.73;2.07;;;;;;;;;;6213399;23;20346;-56
2021/10/01 09:34:45;;;;;;;5.17;1.50;;;;;;;;;;6212901;23;20373;-58
2021/10/01 09:37:12;;;;;;;4.27;1.53;;;;;;;;;;6240151;23;20790;-59
2021/10/01 09:39:41;;;;;;;5.15;1.70;;;;;;;;;;6240562;23;20449;-59
2021/10/01 09:42:15;;;;;;;3.63;1.40;;;;;;;;;;6213310;23;20857;-58
2021/10/01 09:44:46;;;;;;;5.68;1.45;;;;;;;;;;6240234;23;20477;-57
2021/10/01 09:47:12;;;;;;;3.75;1.45;;;;;;;;;;6240483;23;20353;-61
2021/10/01 09:49:38;;;;;;;4.38;1.65;;;;;;;;;;6240039;23;20671;-57
2021/10/01 09:52:10;;;;;;;4.60;1.90;;;;;;;;;;6240600;23;20338;-49
2021/10/01 09:54:38;;;;;;;4.60;1.73;;;;;;;;;;6237062;23;20340;-51
2021/10/01 09:57:06;;;;;;;5.28;1.92;;;;;;;;;;6212005;23;20381;-53
2021/10/01 09:59:34;;;;;;;5.88;1.90;;;;;;;;;;6239521;23;20414;-50
2021/10/01 10:02:13;;;;;;;4.17;1.50;;;;;;;;;;6239734;23;20512;-50
2021/10/01 10:04:57;;;;;;;4.38;1.70;;;;;;;;;;6239183;23;21115;-55
2021/10/01 10:07:25;;;;;;;5.47;1.80;;;;;;;;;;6239751;23;20357;-51
2021/10/01 10:09:51;;;;;;;6.35;2.30;;;;;;;;;;6239151;23;20427;-51
2021/10/01 10:12:22;;;;;;;7.53;2.47;;;;;;;;;;6239211;23;20361;-53
2021/10/01 10:14:52;;;;;;;6.17;2.13;;;;;;;;;;6212043;23;20386;-51
2021/10/01 10:17:28;;;;;;;5.82;2.10;;;;;;;;;;6238066;23;20445;-50
2021/10/01 10:19:59;;;;;;;4.65;1.70;;;;;;;;;;6210976;23;20396;-50
2021/10/01 10:22:26;;;;;;;7.47;2.50;;;;;;;;;;6238511;23;20361;-50
2021/10/01 10:24:53;;;;;;;5.90;2.20;;;;;;;;;;6211330;23;20826;-50
2021/10/01 10:27:20;;;;;;;6.47;2.03;;;;;;;;;;6212423;23;20406;-52
2021/10/01 10:29:46;;;;;;;6.20;2.10;;;;;;;;;;6212203;23;20349;-50
2021/10/01 10:32:14;;;;;;;5.05;2.08;;;;;;;;;;6212602;23;20420;-50
2021/10/01 10:35:01;;;;;;;5.07;2.00;;;;;;;;;;6212476;23;20667;-49
2021/10/01 10:37:36;;;;;;;5.28;2.10;;;;;;;;;;6212596;23;20347;-50
2021/10/01 10:40:09;;;;;;;5.35;2.15;;;;;;;;;;6239460;23;20710;-51
2021/10/01 10:42:37;;;;;;;5.35;1.95;;;;;;;;;;6239463;23;20437;-53
2021/10/01 10:45:11;;;;;;;5.70;2.20;;;;;;;;;;6212686;23;20373;-55
2021/10/01 10:47:46;;;;;;;5.40;2.10;;;;;;;;;;6212144;23;20856;-50
2021/10/01 10:50:24;;;;;;;8.18;2.63;;;;;;;;;;6212259;23;20469;-52
2021/10/01 10:53:12;;;;;;;4.40;1.70;;;;;;;;;;6212760;23;20423;-54
2021/10/01 10:55:41;;;;;;;5.97;2.15;;;;;;;;;;6211653;23;20579;-53
2021/10/01 10:58:29;;;;;;;4.50;1.80;;;;;;;;;;6239054;23;20364;-50
2021/10/01 11:01:02;;;;;;;5.15;1.80;;;;;;;;;;6239562;23;20404;-53
2021/10/01 11:03:33;;;;;;;6.07;2.30;;;;;;;;;;6211054;23;20388;-53
2021/10/01 11:06:13;;;;;;;6.22;2.25;;;;;;;;;;6239647;23;20330;-51
2021/10/01 11:08:49;;;;;;;6.03;2.17;;;;;;;;;;6239072;23;20405;-50
2021/10/01 11:11:35;;;;;;;5.57;1.80;;;;;;;;;;6212635;23;20376;-52
2021/10/01 11:14:14;;;;;;;5.15;1.70;;;;;;;;;;6240947;23;20334;-49
2021/10/01 11:16:40;;;;;;;6.03;2.13;;;;;;;;;;6212737;23;20613;-51
2021/10/01 11:19:07;;;;;;;6.27;2.50;;;;;;;;;;6213005;23;20388;-50
2021/10/01 11:21:36;;;;;;;6.45;2.35;;;;;;;;;;6212202;23;20495;-50
2021/10/01 11:24:07;;;;;;;5.05;1.88;;;;;;;;;;6239805;23;20370;-50
2021/10/01 11:26:34;;;;;;;8.80;3.35;;;;;;;;;;6239443;23;20338;-50
2021/10/01 11:29:01;;;;;;;3.42;1.55;;;;;;;;;;6212413;23;20386;-49
2021/10/01 11:31:38;;;;;;;4.50;1.60;;;;;;;;;;6214252;23;20844;-50
2021/10/01 11:34:04;;;;;;;5.53;1.90;;;;;;;;;;6214235;23;20385;-49
2021/10/01 11:36:31;;;;;;;5.28;2.10;;;;;;;;;;6214706;23;20607;-49
2021/10/01 11:39:05;;;;;;;4.20;1.60;;;;;;;;;;6214660;23;20822;-51
2021/10/01 11:41:34;;;;;;;7.47;2.10;;;;;;;;;;6240738;23;20384;-53
2021/10/01 11:44:02;;;;;;;5.90;1.87;;;;;;;;;;6214155;23;20429;-51
2021/10/01 11:46:29;;;;;;;4.82;1.70;;;;;;;;;;6240763;23;20397;-49
2021/10/01 11:48:55;;;;;;;4.72;1.98;;;;;;;;;;6213882;23;20885;-53
2021/10/01 11:51:23;;;;;;;3.45;1.67;;;;;;;;;;6241483;23;20397;-49
2021/10/01 11:54:04;;;;;;;4.80;1.80;;;;;;;;;;6214078;23;20348;-51
2021/10/01 11:56:30;;;;;;;5.38;2.22;;;;;;;;;;6213114;23;20347;-52
2021/10/01 11:58:56;;;;;;;6.70;2.35;;;;;;;;;;6240223;23;20330;-52
2021/10/01 12:01:23;;;;;;;4.53;1.83;;;;;;;;;;6211585;23;20444;-54
2021/10/01 12:03:50;;;;;;;6.00;2.30;;;;;;;;;;6238568;23;20342;-51
2021/10/01 12:06:20;;;;;;;4.38;1.75;;;;;;;;;;6212167;23;20346;-48
2021/10/01 12:08:55;;;;;;;5.35;2.13;;;;;;;;;;6237783;23;20453;-52
2021/10/01 12:11:27;;;;;;;2.85;1.52;;;;;;;;;;6241436;23;20428;-51
2021/10/01 12:13:53;;;;;;;4.82;2.00;;;;;;;;;;6241747;23;20343;-52
2021/10/01 12:16:20;;;;;;;2.78;1.50;;;;;;;;;;6214481;23;20394;-49
2021/10/01 12:18:52;;;;;;;5.65;2.25;;;;;;;;;;6240166;22;20376;-50
2021/10/01 12:21:19;;;;;;;8.93;2.17;;;;;;;;;;6213816;23;20410;-53
2021/10/01 12:23:49;;;;;;;6.72;2.00;;;;;;;;;;6213513;23;20354;-57
2021/10/01 12:26:15;;;;;;;5.70;2.00;;;;;;;;;;6240194;23;20645;-54
2021/10/01 12:28:42;;;;;;;5.90;2.20;;;;;;;;;;6241175;23;20347;-54
2021/10/01 12:31:08;;;;;;;5.90;2.17;;;;;;;;;;6240925;23;20345;-53
2021/10/01 12:33:34;;;;;;;6.35;1.90;;;;;;;;;;6240605;23;20428;-54
2021/10/01 12:36:00;;;;;;;4.32;1.77;;;;;;;;;;6241119;23;20326;-53
2021/10/01 12:38:27;;;;;;;5.53;1.93;;;;;;;;;;6240500;23;20337;-55
2021/10/01 12:41:13;;;;;;;4.95;1.70;;;;;;;;;;6240427;23;20354;-50
2021/10/01 12:43:47;;;;;;;4.75;2.15;;;;;;;;;;6213729;23;20411;-52
2021/10/01 12:47:57;;;;;;;6.68;1.85;;;;;;;;;;5105985;27;20369;-42
2021/10/01 12:50:33;;;;;;;6.28;1.80;;;;;;;;;;5086645;28;20491;-46
2021/10/01 12:53:00;;;;;;;5.60;2.00;;;;;;;;;;5084166;28;20393;-44
2021/10/01 12:55:28;;;;;;;4.17;1.80;;;;;;;;;;5083806;28;20386;-45
2021/10/01 12:57:54;;;;;;;4.07;1.75;;;;;;;;;;5092635;28;20520;-44
